Time;durP1;ratioP1;P1;durP2;ratioP2;P2;SDS_P1;SDS_P2;PMS_P1;PMS_P2;Temp;Humidity;BMP_temperature;BMP_pressure;BME280_temperature;BME280_humidity;BME280_pressure;Samples;Min_cycle;Max_cycle;Signal;HPM_P1;HPM_P2
2022/04/30 00:00:12;;;;;;;19.25;10.75;;;;;;;;;;5007665;28;20515;-65
2022/04/30 00:02:39;;;;;;;17.60;11.43;;;;;;;;;;5031177;28;20038;-65
2022/04/30 00:05:05;;;;;;;15.07;10.38;;;;;;;;;;4973225;28;20121;-65
2022/04/30 00:07:31;;;;;;;16.77;11.27;;;;;;;;;;5007917;28;20076;-65
2022/04/30 00:09:57;;;;;;;16.27;10.50;;;;;;;;;;5031015;28;20038;-66
2022/04/30 00:12:25;;;;;;;14.85;10.50;;;;;;;;;;5007578;28;20085;-66
2022/04/30 00:14:51;;;;;;;20.00;9.70;;;;;;;;;;4999555;28;20057;-65
2022/04/30 00:17:17;;;;;;;13.77;9.25;;;;;;;;;;5031444;28;20101;-65
2022/04/30 00:19:43;;;;;;;16.52;10.15;;;;;;;;;;5006911;28;20034;-64
2022/04/30 00:22:10;;;;;;;13.93;9.48;;;;;;;;;;5031966;28;20040;-66
2022/04/30 00:24:38;;;;;;;14.02;9.57;;;;;;;;;;5008468;28;20049;-65
2022/04/30 00:27:04;;;;;;;15.13;8.77;;;;;;;;;;5032193;28;20050;-65
2022/04/30 00:29:30;;;;;;;16.42;9.20;;;;;;;;;;5006626;28;20369;-64
2022/04/30 00:31:57;;;;;;;15.23;9.25;;;;;;;;;;5006638;28;20052;-65
2022/04/30 00:34:23;;;;;;;14.73;8.75;;;;;;;;;;5007357;28;20089;-65
2022/04/30 00:36:49;;;;;;;15.15;8.68;;;;;;;;;;5006961;28;20070;-64
2022/04/30 00:39:16;;;;;;;14.82;8.85;;;;;;;;;;5007723;28;20069;-64
2022/04/30 00:41:45;;;;;;;15.40;8.65;;;;;;;;;;5034247;28;20473;-64
2022/04/30 00:44:11;;;;;;;12.60;8.63;;;;;;;;;;5021397;28;20125;-63
2022/04/30 00:46:37;;;;;;;14.63;8.35;;;;;;;;;;5006898;28;20085;-64
2022/04/30 00:49:04;;;;;;;13.13;7.70;;;;;;;;;;5014529;28;20081;-64
2022/04/30 00:51:32;;;;;;;15.18;7.55;;;;;;;;;;5030675;28;20424;-63
2022/04/30 00:54:00;;;;;;;12.00;7.50;;;;;;;;;;5005995;28;20046;-64
2022/04/30 00:56:27;;;;;;;10.38;7.72;;;;;;;;;;5006962;28;20037;-64
2022/04/30 00:58:54;;;;;;;12.02;7.15;;;;;;;;;;5012076;28;20427;-64
2022/04/30 01:01:20;;;;;;;11.73;6.93;;;;;;;;;;5007577;28;20042;-65
2022/04/30 01:03:47;;;;;;;13.82;7.30;;;;;;;;;;5032336;28;20050;-65
2022/04/30 01:06:14;;;;;;;12.43;7.10;;;;;;;;;;5005746;28;20049;-65
2022/04/30 01:08:40;;;;;;;15.75;7.13;;;;;;;;;;5032544;28;20314;-65
2022/04/30 01:11:07;;;;;;;10.88;6.60;;;;;;;;;;4990319;28;20049;-65
2022/04/30 01:13:35;;;;;;;12.88;6.63;;;;;;;;;;5007250;28;20115;-65
2022/04/30 01:16:03;;;;;;;12.85;6.68;;;;;;;;;;5034157;28;20050;-65
2022/04/30 01:18:29;;;;;;;11.73;6.82;;;;;;;;;;5007402;28;20179;-65
2022/04/30 01:21:03;;;;;;;16.65;7.10;;;;;;;;;;5006835;28;20563;-64
2022/04/30 01:23:30;;;;;;;10.93;6.60;;;;;;;;;;5006244;28;20064;-65
2022/04/30 01:25:57;;;;;;;11.20;6.97;;;;;;;;;;5034334;28;20041;-64
2022/04/30 01:28:25;;;;;;;13.05;7.03;;;;;;;;;;5031041;28;20057;-65
2022/04/30 01:30:51;;;;;;;13.52;7.07;;;;;;;;;;5031895;28;20549;-65
2022/04/30 01:37:22;;;;;;;10.00;5.90;;;;;;;;;;5027996;28;20050;-64
2022/04/30 01:38:49;;;;;;;15.90;6.53;;;;;;;;;;5005356;28;20054;-65
2022/04/30 01:41:15;;;;;;;9.48;5.63;;;;;;;;;;5007130;28;20061;-66
2022/04/30 01:43:42;;;;;;;12.10;5.80;;;;;;;;;;5005735;28;20045;-64
2022/04/30 01:46:10;;;;;;;11.85;6.95;;;;;;;;;;5007397;28;20601;-65
2022/04/30 01:48:36;;;;;;;15.07;6.55;;;;;;;;;;5030015;28;20061;-65
2022/04/30 01:51:02;;;;;;;11.93;6.10;;;;;;;;;;5030530;28;20041;-64
2022/04/30 01:53:28;;;;;;;14.68;6.78;;;;;;;;;;5005092;28;20059;-64
2022/04/30 01:55:54;;;;;;;9.07;5.93;;;;;;;;;;5007397;28;20042;-64
2022/04/30 01:58:20;;;;;;;11.82;6.70;;;;;;;;;;5011832;28;21561;-64
2022/04/30 02:00:47;;;;;;;9.45;5.63;;;;;;;;;;5011566;28;20038;-64
2022/04/30 02:03:14;;;;;;;9.93;6.15;;;;;;;;;;5026388;28;20052;-64
2022/04/30 02:05:41;;;;;;;11.52;6.00;;;;;;;;;;4987950;28;20387;-64
2022/04/30 02:08:08;;;;;;;14.40;5.75;;;;;;;;;;5007474;28;20116;-63
2022/04/30 02:10:36;;;;;;;13.20;6.07;;;;;;;;;;5008891;28;20523;-62
2022/04/30 02:13:02;;;;;;;11.65;6.28;;;;;;;;;;5009141;28;20042;-62
2022/04/30 02:15:29;;;;;;;9.13;6.15;;;;;;;;;;4990766;28;20053;-62
2022/04/30 02:17:56;;;;;;;13.32;6.30;;;;;;;;;;5009011;28;20037;-63
2022/04/30 02:20:24;;;;;;;9.68;6.07;;;;;;;;;;5030815;28;20502;-64
2022/04/30 02:22:52;;;;;;;11.65;6.43;;;;;;;;;;5006771;28;20037;-64
2022/04/30 02:25:19;;;;;;;10.77;5.95;;;;;;;;;;5034249;28;20038;-63
2022/04/30 02:27:48;;;;;;;11.20;6.50;;;;;;;;;;5015509;28;20048;-63
2022/04/30 02:30:17;;;;;;;9.63;6.32;;;;;;;;;;5020193;28;20087;-63
2022/04/30 02:32:48;;;;;;;11.30;6.47;;;;;;;;;;5007791;28;20143;-63
2022/04/30 02:35:15;;;;;;;11.05;6.80;;;;;;;;;;5014101;28;20082;-63
2022/04/30 02:37:44;;;;;;;12.05;6.75;;;;;;;;;;5006008;28;20037;-65
2022/04/30 02:40:13;;;;;;;12.07;6.53;;;;;;;;;;5014808;28;20034;-65
2022/04/30 02:42:41;;;;;;;12.05;7.00;;;;;;;;;;5005868;28;20105;-65
2022/04/30 02:45:09;;;;;;;11.82;6.43;;;;;;;;;;5005205;28;20060;-64
2022/04/30 02:47:35;;;;;;;9.93;6.93;;;;;;;;;;5005876;28;20057;-64
2022/04/30 02:50:01;;;;;;;13.23;6.43;;;;;;;;;;5006437;28;20054;-65
2022/04/30 02:52:27;;;;;;;9.75;6.80;;;;;;;;;;5006502;28;20475;-66
2022/04/30 02:54:53;;;;;;;10.63;7.07;;;;;;;;;;5006454;28;20464;-64
2022/04/30 02:57:19;;;;;;;13.05;7.32;;;;;;;;;;5006039;28;20461;-65
2022/04/30 02:59:54;;;;;;;16.40;7.18;;;;;;;;;;5005956;28;20093;-65
2022/04/30 03:02:21;;;;;;;11.05;7.28;;;;;;;;;;5005918;28;20148;-65
2022/04/30 03:04:51;;;;;;;10.30;7.03;;;;;;;;;;4988067;28;20054;-65
2022/04/30 03:07:22;;;;;;;9.73;6.38;;;;;;;;;;5005562;28;20038;-65
2022/04/30 03:09:49;;;;;;;14.10;6.97;;;;;;;;;;5027288;28;20516;-64
2022/04/30 03:12:15;;;;;;;13.05;7.05;;;;;;;;;;5005511;28;22059;-65
2022/04/30 03:14:42;;;;;;;13.23;6.35;;;;;;;;;;5028115;28;20096;-65
2022/04/30 03:22:38;;;;;;;10.60;5.65;;;;;;;;;;5006449;28;20041;-65
2022/04/30 03:25:05;;;;;;;11.77;6.15;;;;;;;;;;4971721;28;20495;-65
2022/04/30 03:27:32;;;;;;;11.75;5.72;;;;;;;;;;5009023;28;20056;-66
2022/04/30 03:29:58;;;;;;;13.27;6.35;;;;;;;;;;5034181;28;20042;-64
2022/04/30 03:32:24;;;;;;;10.38;5.63;;;;;;;;;;5028533;28;20041;-66
2022/04/30 03:34:51;;;;;;;12.98;5.65;;;;;;;;;;5007661;28;20038;-64
2022/04/30 03:37:18;;;;;;;9.73;4.95;;;;;;;;;;5006690;28;20045;-66
2022/04/30 03:39:44;;;;;;;10.95;5.47;;;;;;;;;;5036797;28;20045;-66
2022/04/30 03:42:10;;;;;;;10.02;5.90;;;;;;;;;;5007833;28;20034;-66
2022/04/30 03:44:36;;;;;;;12.77;6.25;;;;;;;;;;5031973;28;20096;-63
2022/04/30 03:47:02;;;;;;;10.32;6.07;;;;;;;;;;4992907;28;20068;-63
2022/04/30 03:49:29;;;;;;;11.90;6.20;;;;;;;;;;5031319;28;20049;-64
2022/04/30 03:51:55;;;;;;;12.35;6.97;;;;;;;;;;5009621;28;20056;-65
2022/04/30 03:54:21;;;;;;;10.30;7.00;;;;;;;;;;5008881;28;20085;-65
2022/04/30 03:56:48;;;;;;;8.98;6.40;;;;;;;;;;4990623;28;20071;-66
2022/04/30 03:59:15;;;;;;;11.63;6.07;;;;;;;;;;5034756;28;20048;-65
2022/04/30 04:01:41;;;;;;;8.52;5.85;;;;;;;;;;4991724;28;20042;-66
2022/04/30 04:04:07;;;;;;;11.15;5.82;;;;;;;;;;5007479;28;20419;-65
2022/04/30 04:06:33;;;;;;;9.75;5.40;;;;;;;;;;5031251;28;20499;-66
2022/04/30 04:08:59;;;;;;;8.43;5.57;;;;;;;;;;5008721;28;20045;-65
2022/04/30 04:11:26;;;;;;;9.85;6.28;;;;;;;;;;4991157;28;20054;-65
2022/04/30 04:19:24;;;;;;;11.55;6.22;;;;;;;;;;5007233;28;20060;-65
2022/04/30 04:21:50;;;;;;;10.95;6.00;;;;;;;;;;4990265;28;20135;-65
2022/04/30 04:27:01;;;;;;;10.98;6.05;;;;;;;;;;5015341;28;20232;-65
2022/04/30 04:29:27;;;;;;;9.00;5.97;;;;;;;;;;5006953;28;20045;-65
2022/04/30 04:31:53;;;;;;;10.00;6.57;;;;;;;;;;5032792;28;20057;-65
2022/04/30 04:34:19;;;;;;;10.43;6.32;;;;;;;;;;5030901;28;20094;-65
2022/04/30 04:36:45;;;;;;;8.55;5.85;;;;;;;;;;5007637;28;20210;-64
2022/04/30 04:39:13;;;;;;;7.20;6.10;;;;;;;;;;5036517;28;20045;-62
2022/04/30 04:41:41;;;;;;;8.07;6.78;;;;;;;;;;5008305;28;20505;-63
2022/04/30 04:44:07;;;;;;;7.95;6.97;;;;;;;;;;5009616;28;20037;-62
2022/04/30 04:46:34;;;;;;;10.57;7.15;;;;;;;;;;5016750;28;20041;-64
2022/04/30 04:49:00;;;;;;;11.90;6.93;;;;;;;;;;4991932;28;20566;-64
2022/04/30 04:51:27;;;;;;;9.20;7.30;;;;;;;;;;5008106;28;20042;-62
2022/04/30 04:53:53;;;;;;;11.85;7.90;;;;;;;;;;5008494;28;20057;-63
2022/04/30 04:56:20;;;;;;;10.55;7.25;;;;;;;;;;5031612;28;20030;-65
2022/04/30 04:58:46;;;;;;;11.57;7.55;;;;;;;;;;5033533;28;20088;-65
2022/04/30 05:01:12;;;;;;;12.27;7.78;;;;;;;;;;5007912;28;20557;-64
2022/04/30 05:03:38;;;;;;;15.40;7.65;;;;;;;;;;5007262;28;20042;-65
2022/04/30 05:06:05;;;;;;;11.25;7.57;;;;;;;;;;5007435;28;20144;-65
2022/04/30 05:08:31;;;;;;;7.82;7.10;;;;;;;;;;5007970;28;20550;-67
2022/04/30 05:10:57;;;;;;;11.43;7.35;;;;;;;;;;5008004;28;20037;-64
2022/04/30 05:13:23;;;;;;;15.48;7.55;;;;;;;;;;5032884;28;20479;-63
2022/04/30 05:15:49;;;;;;;12.27;8.80;;;;;;;;;;5008249;28;20045;-65
2022/04/30 05:18:15;;;;;;;11.73;7.35;;;;;;;;;;5004806;28;20388;-65
2022/04/30 05:20:41;;;;;;;15.25;7.95;;;;;;;;;;5006088;28;20057;-64
2022/04/30 05:23:07;;;;;;;16.00;7.95;;;;;;;;;;4998660;28;20611;-64
2022/04/30 05:25:35;;;;;;;9.73;7.38;;;;;;;;;;5030222;28;20046;-65
2022/04/30 05:28:01;;;;;;;12.30;7.13;;;;;;;;;;5034249;28;20054;-66
2022/04/30 05:30:30;;;;;;;10.65;7.13;;;;;;;;;;5007385;28;20038;-65
2022/04/30 05:32:56;;;;;;;12.77;8.23;;;;;;;;;;5022029;28;20061;-65
2022/04/30 05:35:22;;;;;;;10.15;6.85;;;;;;;;;;5012901;28;20042;-64
2022/04/30 05:37:48;;;;;;;9.13;6.90;;;;;;;;;;5006762;28;20064;-64
2022/04/30 05:40:14;;;;;;;10.77;7.00;;;;;;;;;;5007190;28;20137;-65
2022/04/30 05:42:42;;;;;;;11.18;7.47;;;;;;;;;;5013535;28;20038;-64
2022/04/30 05:45:08;;;;;;;10.07;7.28;;;;;;;;;;5029193;28;20052;-65
2022/04/30 05:47:37;;;;;;;10.00;6.88;;;;;;;;;;5005395;28;20061;-65
2022/04/30 05:50:04;;;;;;;11.05;6.90;;;;;;;;;;5006543;28;20527;-66
2022/04/30 05:52:31;;;;;;;13.93;7.40;;;;;;;;;;5005809;28;20045;-65
2022/04/30 05:54:57;;;;;;;10.05;7.28;;;;;;;;;;5005854;28;20096;-65
2022/04/30 05:57:23;;;;;;;8.18;7.20;;;;;;;;;;5004887;28;20100;-66
2022/04/30 05:59:49;;;;;;;11.10;7.10;;;;;;;;;;4989029;28;20038;-65
2022/04/30 06:02:18;;;;;;;8.48;7.28;;;;;;;;;;5026334;28;20030;-66
2022/04/30 06:04:46;;;;;;;13.25;6.90;;;;;;;;;;4990074;28;20069;-63
2022/04/30 06:07:12;;;;;;;11.90;7.25;;;;;;;;;;4998127;28;20041;-63
2022/04/30 06:09:38;;;;;;;10.75;6.55;;;;;;;;;;5007199;28;20042;-62
2022/04/30 06:12:05;;;;;;;11.13;6.97;;;;;;;;;;5007407;28;20041;-64
2022/04/30 06:14:31;;;;;;;9.10;6.53;;;;;;;;;;5007949;28;20107;-64
2022/04/30 06:16:58;;;;;;;12.45;6.78;;;;;;;;;;4991211;28;20046;-64
2022/04/30 06:19:24;;;;;;;9.43;6.30;;;;;;;;;;5007383;28;20033;-65
2022/04/30 06:21:50;;;;;;;9.55;5.20;;;;;;;;;;5004823;28;20119;-64
2022/04/30 06:24:17;;;;;;;10.98;6.10;;;;;;;;;;5005497;28;20042;-65
2022/04/30 06:26:44;;;;;;;10.45;5.75;;;;;;;;;;5005386;28;20046;-64
2022/04/30 06:29:10;;;;;;;7.85;5.13;;;;;;;;;;5004581;28;20594;-64
2022/04/30 06:31:37;;;;;;;10.13;4.78;;;;;;;;;;5006199;28;20041;-65
2022/04/30 06:34:03;;;;;;;8.25;5.05;;;;;;;;;;5006562;28;20094;-65
2022/04/30 06:36:30;;;;;;;7.10;4.82;;;;;;;;;;5008321;28;20116;-65
2022/04/30 06:38:56;;;;;;;9.30;4.95;;;;;;;;;;5007599;28;20123;-64
2022/04/30 06:41:22;;;;;;;8.02;4.40;;;;;;;;;;5005609;28;20052;-65
2022/04/30 06:43:49;;;;;;;7.07;4.57;;;;;;;;;;5006708;28;20025;-66
2022/04/30 06:46:16;;;;;;;9.20;5.50;;;;;;;;;;5026957;28;20518;-65
2022/04/30 06:48:42;;;;;;;7.60;4.30;;;;;;;;;;5006656;28;20588;-65
2022/04/30 06:51:09;;;;;;;8.43;4.65;;;;;;;;;;4989250;28;20109;-65
2022/04/30 06:59:10;;;;;;;6.75;3.47;;;;;;;;;;4991630;28;20133;-66
2022/04/30 07:01:44;;;;;;;8.43;3.47;;;;;;;;;;4999246;28;20132;-67
2022/04/30 07:04:11;;;;;;;5.82;3.13;;;;;;;;;;5032023;28;20081;-65
2022/04/30 07:06:40;;;;;;;6.68;2.70;;;;;;;;;;4992219;28;20081;-66
2022/04/30 07:09:08;;;;;;;7.68;2.38;;;;;;;;;;5035816;28;20099;-65
2022/04/30 07:11:34;;;;;;;4.15;2.35;;;;;;;;;;5030787;28;20065;-65
2022/04/30 07:14:00;;;;;;;3.83;2.63;;;;;;;;;;5007368;28;20100;-66
2022/04/30 07:16:26;;;;;;;8.25;2.65;;;;;;;;;;5008728;28;20484;-65
2022/04/30 07:18:53;;;;;;;5.78;1.98;;;;;;;;;;4991378;28;20048;-64
2022/04/30 07:21:19;;;;;;;4.03;1.00;;;;;;;;;;4992850;28;20061;-65
2022/04/30 07:23:45;;;;;;;5.65;1.23;;;;;;;;;;5009077;28;20077;-64
2022/04/30 07:26:11;;;;;;;2.60;0.90;;;;;;;;;;5008507;28;20104;-64
2022/04/30 07:28:38;;;;;;;3.10;0.73;;;;;;;;;;5018732;28;20037;-64
2022/04/30 07:31:05;;;;;;;3.92;1.00;;;;;;;;;;5010290;28;20038;-64
2022/04/30 07:33:31;;;;;;;4.50;1.33;;;;;;;;;;5008250;28;20439;-63
2022/04/30 07:35:57;;;;;;;7.20;1.15;;;;;;;;;;5011165;28;20081;-66
2022/04/30 07:38:24;;;;;;;4.53;1.10;;;;;;;;;;5008363;28;20046;-67
2022/04/30 07:40:50;;;;;;;4.13;0.90;;;;;;;;;;4991526;28;20480;-64
2022/04/30 07:43:16;;;;;;;4.20;1.25;;;;;;;;;;5033909;28;20750;-63
2022/04/30 07:45:42;;;;;;;3.20;1.10;;;;;;;;;;5010450;28;20038;-64
2022/04/30 07:48:08;;;;;;;5.03;1.02;;;;;;;;;;4993923;28;20145;-64
2022/04/30 07:50:37;;;;;;;3.72;1.15;;;;;;;;;;5010521;28;20050;-64
2022/04/30 07:53:07;;;;;;;4.53;1.20;;;;;;;;;;5011890;28;20393;-64
2022/04/30 07:55:33;;;;;;;3.97;1.13;;;;;;;;;;5026781;28;20213;-65
2022/04/30 07:57:59;;;;;;;4.03;1.23;;;;;;;;;;5010075;28;20038;-64
2022/04/30 08:00:26;;;;;;;5.88;1.27;;;;;;;;;;5012348;28;20038;-64
2022/04/30 08:02:55;;;;;;;3.33;0.80;;;;;;;;;;5028215;28;20085;-64
2022/04/30 08:05:21;;;;;;;4.13;0.95;;;;;;;;;;5013021;28;20057;-64
2022/04/30 08:07:47;;;;;;;7.70;1.55;;;;;;;;;;5043102;28;20072;-65
2022/04/30 08:10:13;;;;;;;8.18;1.10;;;;;;;;;;5011423;28;20061;-64
2022/04/30 08:12:39;;;;;;;5.18;1.20;;;;;;;;;;5009786;28;20069;-64
2022/04/30 08:15:06;;;;;;;4.45;1.33;;;;;;;;;;5010231;28;20054;-65
2022/04/30 08:17:32;;;;;;;6.65;1.63;;;;;;;;;;5042921;28;20061;-64
2022/04/30 08:19:58;;;;;;;4.72;1.67;;;;;;;;;;5011152;28;20148;-64
2022/04/30 08:22:24;;;;;;;7.95;1.92;;;;;;;;;;5026485;28;20057;-65
2022/04/30 08:24:50;;;;;;;3.92;1.38;;;;;;;;;;5026149;28;20550;-65
2022/04/30 08:27:16;;;;;;;3.35;1.30;;;;;;;;;;5009675;28;20100;-64
2022/04/30 08:29:44;;;;;;;5.55;1.60;;;;;;;;;;4993210;28;20053;-65
2022/04/30 08:32:11;;;;;;;3.08;1.50;;;;;;;;;;5026744;28;20037;-64
2022/04/30 08:34:37;;;;;;;4.57;1.60;;;;;;;;;;5010934;28;20101;-65
2022/04/30 08:37:03;;;;;;;4.25;1.00;;;;;;;;;;5026197;28;20574;-65
2022/04/30 08:39:31;;;;;;;3.58;0.98;;;;;;;;;;5010710;28;20068;-65
2022/04/30 08:41:58;;;;;;;4.53;1.17;;;;;;;;;;5025989;28;20542;-65
2022/04/30 08:44:24;;;;;;;2.40;0.75;;;;;;;;;;4993434;28;20037;-64
2022/04/30 08:46:51;;;;;;;4.15;1.17;;;;;;;;;;5011577;28;20387;-67
2022/04/30 08:49:17;;;;;;;5.53;1.08;;;;;;;;;;5011051;28;20521;-66
2022/04/30 08:51:43;;;;;;;5.47;0.90;;;;;;;;;;5011018;28;20056;-66
2022/04/30 08:54:09;;;;;;;3.63;0.90;;;;;;;;;;5010702;28;20104;-66
2022/04/30 08:56:38;;;;;;;6.78;0.95;;;;;;;;;;5042547;28;20044;-66
2022/04/30 08:59:05;;;;;;;4.45;0.95;;;;;;;;;;5042436;28;20034;-65
2022/04/30 09:01:47;;;;;;;4.22;1.20;;;;;;;;;;5025529;28;20038;-66
2022/04/30 09:04:13;;;;;;;3.78;0.90;;;;;;;;;;5009549;28;20132;-66
2022/04/30 09:06:46;;;;;;;3.55;0.88;;;;;;;;;;5011019;28;20045;-66
2022/04/30 09:09:20;;;;;;;3.38;0.90;;;;;;;;;;5009146;28;20046;-66
2022/04/30 09:11:47;;;;;;;3.22;0.70;;;;;;;;;;5010624;28;20535;-66
2022/04/30 09:14:13;;;;;;;3.88;0.90;;;;;;;;;;5025283;28;20050;-66
2022/04/30 09:16:39;;;;;;;4.40;0.60;;;;;;;;;;5010439;28;20503;-66
2022/04/30 09:19:05;;;;;;;4.80;0.90;;;;;;;;;;5009202;28;20392;-66
2022/04/30 09:21:31;;;;;;;6.13;0.80;;;;;;;;;;5010023;28;20128;-67
2022/04/30 09:24:05;;;;;;;2.45;0.65;;;;;;;;;;4992174;28;20049;-66
2022/04/30 09:26:41;;;;;;;2.83;0.90;;;;;;;;;;5008886;28;20049;-67
2022/04/30 09:29:20;;;;;;;4.18;0.98;;;;;;;;;;5009967;28;20531;-66
2022/04/30 09:31:53;;;;;;;5.20;1.50;;;;;;;;;;5008990;28;20519;-66
2022/04/30 09:39:53;;;;;;;4.32;0.90;;;;;;;;;;5009781;28;20057;-66
2022/04/30 09:42:19;;;;;;;4.85;0.90;;;;;;;;;;4992832;28;20412;-64
2022/04/30 09:44:45;;;;;;;8.38;1.08;;;;;;;;;;5024989;28;20041;-65
2022/04/30 09:47:11;;;;;;;4.70;1.08;;;;;;;;;;5008513;28;20535;-64
2022/04/30 09:55:08;;;;;;;2.63;0.85;;;;;;;;;;5008251;28;20500;-65
2022/04/30 09:57:38;;;;;;;3.00;0.70;;;;;;;;;;5009243;28;20042;-65
2022/04/30 10:00:08;;;;;;;4.10;1.17;;;;;;;;;;5008355;28;20046;-64
2022/04/30 10:02:35;;;;;;;4.32;0.80;;;;;;;;;;5009692;28;20049;-65
2022/04/30 10:05:03;;;;;;;4.32;0.98;;;;;;;;;;5009700;28;20203;-65
2022/04/30 10:07:32;;;;;;;2.92;0.82;;;;;;;;;;5007782;28;20042;-65
2022/04/30 10:09:59;;;;;;;3.60;0.70;;;;;;;;;;5024579;28;20490;-66
2022/04/30 10:12:26;;;;;;;2.65;0.90;;;;;;;;;;5009338;28;20123;-65
2022/04/30 10:15:11;;;;;;;5.43;0.80;;;;;;;;;;5008115;28;20050;-65
2022/04/30 10:17:42;;;;;;;4.25;1.00;;;;;;;;;;5040862;28;20045;-65
2022/04/30 10:20:51;;;;;;;3.33;1.50;;;;;;;;;;5024363;28;20038;-65
2022/04/30 10:23:02;;;;;;;5.05;1.00;;;;;;;;;;5008597;28;20523;-65
2022/04/30 10:25:34;;;;;;;2.50;0.77;;;;;;;;;;5009268;28;20488;-66
2022/04/30 10:28:04;;;;;;;2.10;0.52;;;;;;;;;;5009137;28;20116;-66
2022/04/30 10:30:30;;;;;;;1.88;0.70;;;;;;;;;;5009161;28;20049;-66
2022/04/30 10:33:06;;;;;;;2.53;0.65;;;;;;;;;;5007930;28;20488;-65
2022/04/30 10:35:33;;;;;;;4.45;0.80;;;;;;;;;;5010948;28;20408;-65
2022/04/30 10:38:12;;;;;;;4.07;0.80;;;;;;;;;;5013519;28;20044;-64
2022/04/30 10:40:57;;;;;;;2.83;0.88;;;;;;;;;;5012853;28;20497;-63
2022/04/30 10:43:35;;;;;;;3.58;1.08;;;;;;;;;;5012799;28;20488;-63
2022/04/30 10:46:03;;;;;;;2.38;0.80;;;;;;;;;;5012855;28;20084;-64
2022/04/30 10:48:30;;;;;;;3.35;0.75;;;;;;;;;;5012204;28;20064;-64
2022/04/30 10:51:05;;;;;;;2.47;0.90;;;;;;;;;;5035510;28;20061;-63
2022/04/30 10:53:32;;;;;;;3.20;1.10;;;;;;;;;;5036403;28;20053;-64
2022/04/30 10:56:02;;;;;;;2.88;0.70;;;;;;;;;;5012073;28;20033;-66
2022/04/30 10:58:28;;;;;;;2.67;1.08;;;;;;;;;;5011950;28;20038;-63
2022/04/30 11:00:54;;;;;;;5.43;1.30;;;;;;;;;;5039743;28;20057;-66
2022/04/30 11:03:27;;;;;;;4.32;0.90;;;;;;;;;;5009422;28;20037;-67
2022/04/30 11:05:53;;;;;;;;;;;;;;;;;;5010324;28;20057;-66
2022/04/30 11:08:19;;;;;;;4.43;1.00;;;;;;;;;;5009692;28;20299;-66
2022/04/30 11:10:49;;;;;;;3.40;1.05;;;;;;;;;;5025883;28;20049;-66
2022/04/30 11:13:16;;;;;;;3.75;0.93;;;;;;;;;;4992765;28;20045;-66
2022/04/30 11:15:42;;;;;;;2.78;1.17;;;;;;;;;;5010070;28;20053;-66
2022/04/30 11:18:08;;;;;;;3.03;1.15;;;;;;;;;;4992729;28;20496;-66
2022/04/30 11:20:34;;;;;;;2.88;0.77;;;;;;;;;;5029849;28;20034;-66
2022/04/30 11:23:00;;;;;;;4.60;1.08;;;;;;;;;;5016354;28;20143;-67
2022/04/30 11:25:35;;;;;;;2.35;0.77;;;;;;;;;;5009532;28;20496;-66
2022/04/30 11:28:02;;;;;;;2.92;0.70;;;;;;;;;;5036480;28;20395;-66
2022/04/30 11:30:28;;;;;;;2.42;1.00;;;;;;;;;;5010977;28;20052;-67
2022/04/30 11:32:54;;;;;;;3.33;0.90;;;;;;;;;;5017922;28;20066;-67
2022/04/30 11:35:21;;;;;;;2.92;0.77;;;;;;;;;;5009021;28;20046;-67
2022/04/30 11:37:47;;;;;;;3.63;0.93;;;;;;;;;;4992853;28;20439;-66
2022/04/30 11:40:13;;;;;;;2.63;0.90;;;;;;;;;;5030622;28;20060;-66
2022/04/30 11:42:39;;;;;;;4.70;1.20;;;;;;;;;;5010749;28;20030;-66
2022/04/30 11:45:06;;;;;;;4.50;0.93;;;;;;;;;;5011190;28;20041;-66
2022/04/30 11:47:32;;;;;;;4.93;0.90;;;;;;;;;;5031926;28;20456;-66
2022/04/30 11:50:09;;;;;;;2.55;0.85;;;;;;;;;;5010764;28;20057;-66
2022/04/30 11:52:35;;;;;;;3.80;0.80;;;;;;;;;;5009170;28;20049;-66
2022/04/30 11:55:03;;;;;;;4.40;1.35;;;;;;;;;;5002250;28;20099;-66
2022/04/30 11:57:29;;;;;;;3.67;1.08;;;;;;;;;;5031897;28;20546;-66
2022/04/30 11:59:56;;;;;;;3.53;1.15;;;;;;;;;;5031618;28;20072;-66
2022/04/30 12:02:22;;;;;;;2.90;1.10;;;;;;;;;;5030139;28;20081;-67
2022/04/30 12:04:50;;;;;;;3.65;1.00;;;;;;;;;;5030107;28;20041;-66
2022/04/30 12:07:17;;;;;;;4.47;1.00;;;;;;;;;;5030206;28;20049;-66
2022/04/30 12:09:47;;;;;;;1.60;0.73;;;;;;;;;;5029597;28;20495;-67
2022/04/30 12:12:18;;;;;;;3.58;0.88;;;;;;;;;;5030075;28;20064;-67
2022/04/30 12:14:48;;;;;;;4.82;1.00;;;;;;;;;;5029844;28;20087;-66
2022/04/30 12:17:14;;;;;;;4.95;0.80;;;;;;;;;;5031336;28;20080;-67
2022/04/30 12:25:15;;;;;;;2.72;0.70;;;;;;;;;;5063144;28;20138;-66
2022/04/30 12:27:42;;;;;;;2.03;0.60;;;;;;;;;;5045958;28;20045;-65
2022/04/30 12:30:12;;;;;;;5.50;3.25;;;;;;;;;;5046378;28;20140;-66
2022/04/30 12:32:48;;;;;;;2.90;0.70;;;;;;;;;;5029889;28;20053;-66
2022/04/30 12:35:15;;;;;;;2.35;0.65;;;;;;;;;;5029420;28;20077;-66
2022/04/30 12:37:41;;;;;;;2.13;0.85;;;;;;;;;;5029539;28;20381;-65
2022/04/30 12:40:08;;;;;;;4.25;1.25;;;;;;;;;;5062818;28;20056;-66
2022/04/30 12:42:34;;;;;;;6.32;1.33;;;;;;;;;;5029335;28;20091;-66
2022/04/30 12:45:00;;;;;;;3.72;1.10;;;;;;;;;;5012568;28;20053;-66
2022/04/30 12:47:26;;;;;;;3.67;1.45;;;;;;;;;;5029128;28;20080;-66
2022/04/30 12:49:52;;;;;;;7.60;2.22;;;;;;;;;;5029260;28;20061;-66
2022/04/30 12:52:19;;;;;;;2.88;1.50;;;;;;;;;;5029116;28;20052;-66
2022/04/30 12:54:45;;;;;;;3.00;1.35;;;;;;;;;;5028933;28;20088;-67
2022/04/30 12:57:11;;;;;;;3.08;1.50;;;;;;;;;;5028904;28;20045;-66
2022/04/30 12:59:37;;;;;;;4.68;1.58;;;;;;;;;;5029110;28;20120;-66
2022/04/30 13:02:04;;;;;;;4.28;1.90;;;;;;;;;;5045671;28;20049;-68
2022/04/30 13:04:30;;;;;;;5.10;2.10;;;;;;;;;;5028931;28;20152;-66
2022/04/30 13:06:56;;;;;;;4.80;1.60;;;;;;;;;;5029152;28;20049;-66
2022/04/30 13:14:53;;;;;;;4.00;1.83;;;;;;;;;;5029970;28;20057;-66
2022/04/30 13:17:19;;;;;;;5.20;1.60;;;;;;;;;;5028611;28;20378;-66
2022/04/30 13:19:46;;;;;;;2.17;1.40;;;;;;;;;;5029895;28;20124;-66
2022/04/30 13:22:13;;;;;;;2.22;1.73;;;;;;;;;;5030115;28;20487;-66
2022/04/30 13:24:39;;;;;;;4.35;1.48;;;;;;;;;;5025926;28;20048;-67
2022/04/30 13:27:06;;;;;;;4.88;1.55;;;;;;;;;;5007296;28;20504;-67
2022/04/30 13:29:32;;;;;;;2.70;1.50;;;;;;;;;;5007341;28;20053;-66
2022/04/30 13:31:58;;;;;;;3.47;1.80;;;;;;;;;;5006699;28;20115;-66
2022/04/30 13:34:25;;;;;;;3.30;1.55;;;;;;;;;;5006877;28;20324;-66
2022/04/30 13:36:51;;;;;;;2.70;1.38;;;;;;;;;;5007134;28;20128;-66
2022/04/30 13:39:17;;;;;;;3.67;1.70;;;;;;;;;;5006298;28;20048;-66
2022/04/30 13:41:44;;;;;;;2.45;1.50;;;;;;;;;;5029588;28;20423;-66
2022/04/30 13:44:10;;;;;;;3.50;1.85;;;;;;;;;;5007968;28;20125;-66
2022/04/30 13:46:40;;;;;;;3.53;1.30;;;;;;;;;;5008374;28;20399;-66
2022/04/30 13:49:06;;;;;;;2.90;1.23;;;;;;;;;;5006409;28;20095;-67
2022/04/30 13:51:32;;;;;;;2.95;1.17;;;;;;;;;;5031790;28;20092;-66
2022/04/30 13:53:59;;;;;;;3.05;1.15;;;;;;;;;;5008121;28;20045;-66
2022/04/30 13:56:25;;;;;;;3.42;1.40;;;;;;;;;;5007990;28;20100;-66
2022/04/30 13:58:51;;;;;;;2.92;1.20;;;;;;;;;;4989819;28;20045;-66
2022/04/30 14:01:18;;;;;;;4.70;1.20;;;;;;;;;;5032957;28;20042;-67
2022/04/30 14:03:44;;;;;;;3.65;1.55;;;;;;;;;;5007227;28;20087;-66
2022/04/30 14:06:11;;;;;;;2.50;1.30;;;;;;;;;;5008655;28;20041;-66
2022/04/30 14:08:38;;;;;;;3.25;1.40;;;;;;;;;;5008356;28;20096;-65
2022/04/30 14:11:04;;;;;;;4.78;1.65;;;;;;;;;;5007654;28;20041;-66
2022/04/30 14:16:15;;;;;;;4.13;1.58;;;;;;;;;;5008255;28;20042;-65
2022/04/30 14:18:42;;;;;;;8.95;1.80;;;;;;;;;;5008855;28;20078;-65
2022/04/30 14:21:09;;;;;;;4.15;1.40;;;;;;;;;;5008058;28;20033;-66
2022/04/30 14:23:41;;;;;;;4.15;1.55;;;;;;;;;;5009247;28;20507;-65
2022/04/30 14:26:07;;;;;;;2.53;1.45;;;;;;;;;;5008314;28;20065;-65
2022/04/30 14:28:33;;;;;;;2.85;1.02;;;;;;;;;;5040849;28;20325;-65
2022/04/30 14:31:01;;;;;;;3.22;1.48;;;;;;;;;;5009868;28;20089;-65
2022/04/30 14:33:28;;;;;;;3.22;1.50;;;;;;;;;;5008036;28;20050;-66
2022/04/30 14:35:54;;;;;;;3.75;1.13;;;;;;;;;;5007965;28;20045;-65
2022/04/30 14:38:21;;;;;;;3.25;1.15;;;;;;;;;;5009090;28;20131;-64
2022/04/30 14:40:47;;;;;;;6.65;1.98;;;;;;;;;;5010860;28;20113;-63
2022/04/30 14:43:14;;;;;;;5.22;2.03;;;;;;;;;;5010898;28;20695;-64
2022/04/30 14:45:41;;;;;;;5.00;1.77;;;;;;;;;;5042306;28;20124;-64
2022/04/30 14:48:09;;;;;;;4.47;1.33;;;;;;;;;;5010251;28;20054;-63
2022/04/30 14:50:35;;;;;;;3.15;1.52;;;;;;;;;;5009258;28;20054;-63
2022/04/30 14:53:02;;;;;;;5.65;1.92;;;;;;;;;;5005758;28;20053;-64
2022/04/30 14:55:30;;;;;;;5.13;1.40;;;;;;;;;;5010564;28;20057;-63
2022/04/30 14:57:56;;;;;;;39.67;36.00;;;;;;;;;;5010427;28;20042;-64
2022/04/30 15:00:22;;;;;;;17.95;16.15;;;;;;;;;;5009016;28;20045;-66
2022/04/30 15:02:48;;;;;;;3.42;2.10;;;;;;;;;;5009291;28;20046;-65
2022/04/30 15:05:14;;;;;;;5.20;3.53;;;;;;;;;;5007755;28;20603;-65
2022/04/30 15:07:40;;;;;;;4.30;1.77;;;;;;;;;;5008610;28;20417;-65
2022/04/30 15:10:07;;;;;;;3.75;1.30;;;;;;;;;;5007931;28;20046;-65
2022/04/30 15:12:36;;;;;;;5.07;1.90;;;;;;;;;;5024081;28;20072;-66
2022/04/30 15:15:04;;;;;;;6.13;3.42;;;;;;;;;;5007413;28;20052;-66
2022/04/30 15:17:30;;;;;;;3.35;3.03;;;;;;;;;;4991122;28;20465;-64
2022/04/30 15:19:57;;;;;;;6.05;2.35;;;;;;;;;;5008935;28;20570;-66
2022/04/30 15:22:23;;;;;;;4.75;1.83;;;;;;;;;;5010450;28;20416;-65
2022/04/30 15:24:49;;;;;;;7.95;2.40;;;;;;;;;;5011605;28;20061;-67